createdAt,value
2023-02-14T00:02:42.668Z,12.74
2023-02-14T00:05:30.860Z,12.72
2023-02-14T00:08:13.550Z,12.70
2023-02-14T00:10:55.853Z,12.84
2023-02-14T00:13:44.560Z,12.88
2023-02-14T00:16:33.737Z,12.90
2023-02-14T00:19:18.889Z,12.95
2023-02-14T00:22:07.559Z,12.96
2023-02-14T00:24:56.486Z,13.04
2023-02-14T00:27:45.695Z,13.14
2023-02-14T00:30:27.899Z,13.02
2023-02-14T00:33:20.566Z,13.14
2023-02-14T00:36:02.867Z,13.12
2023-02-14T00:38:51.549Z,13.05
2023-02-14T00:41:33.856Z,13.00
2023-02-14T00:44:22.597Z,12.91
2023-02-14T00:47:04.770Z,13.03
2023-02-14T00:49:53.612Z,13.04
2023-02-14T00:52:36.805Z,12.97
2023-02-14T00:55:25.525Z,12.89
2023-02-14T00:58:14.610Z,12.95
2023-02-14T01:01:02.964Z,12.96
2023-02-14T01:03:58.516Z,13.05
2023-02-14T01:06:46.881Z,12.93
2023-02-14T01:09:29.603Z,12.81
2023-02-14T01:12:18.575Z,12.77
2023-02-14T01:15:00.922Z,12.74
2023-02-14T01:17:49.585Z,12.89
2023-02-14T01:20:38.632Z,12.99
2023-02-14T01:23:26.811Z,12.78
2023-02-14T01:26:13.576Z,12.89
2023-02-14T01:29:02.890Z,12.93
2023-02-14T01:31:45.598Z,12.86
2023-02-14T01:34:27.936Z,12.80
2023-02-14T01:37:16.542Z,12.74
2023-02-14T01:40:04.901Z,12.78
2023-02-14T01:42:46.655Z,12.85
2023-02-14T01:45:29.233Z,12.76
2023-02-14T01:48:18.592Z,12.85
2023-02-14T01:51:01.092Z,13.01
2023-02-14T01:53:50.571Z,12.93
2023-02-14T01:56:44.542Z,12.98
2023-02-14T01:59:31.917Z,13.06
2023-02-14T02:02:20.578Z,13.14
2023-02-14T02:05:11.557Z,13.18
2023-02-14T02:08:06.601Z,13.30
2023-02-14T02:10:48.872Z,13.22
2023-02-14T02:13:37.628Z,13.10
2023-02-14T02:16:36.880Z,13.20
2023-02-14T02:20:03.575Z,13.35
2023-02-14T02:23:16.512Z,13.42
2023-02-14T02:26:32.554Z,13.50
2023-02-14T02:29:32.764Z,13.71
2023-02-14T02:32:30.616Z,13.83
2023-02-14T02:35:12.782Z,13.86
2023-02-14T02:38:19.570Z,13.97
2023-02-14T02:41:34.559Z,13.89
2023-02-14T02:44:58.974Z,14.01
2023-02-14T02:47:46.883Z,14.09
2023-02-14T02:51:11.540Z,14.30
2023-02-14T02:54:08.541Z,14.51
2023-02-14T02:56:58.795Z,14.75
2023-02-14T02:59:56.588Z,15.08
2023-02-14T03:03:03.980Z,15.58
2023-02-14T03:05:53.501Z,15.89
2023-02-14T03:08:35.745Z,16.18
2023-02-14T03:11:26.613Z,16.42
2023-02-14T03:14:32.802Z,16.68
2023-02-14T03:17:25.514Z,16.97
2023-02-14T03:20:31.414Z,17.04
2023-02-14T03:23:32.523Z,17.12
2023-02-14T03:26:22.897Z,17.25
2023-02-14T03:29:17.585Z,17.38
2023-02-14T03:32:16.612Z,17.66
2023-02-14T03:35:37.545Z,17.82
2023-02-14T03:39:13.561Z,18.11
2023-02-14T03:42:06.301Z,18.16
2023-02-14T03:44:59.641Z,18.35
2023-02-14T03:47:44.938Z,18.43
2023-02-14T03:50:36.679Z,18.65
2023-02-14T03:53:21.826Z,18.67
2023-02-14T03:56:21.554Z,18.96
2023-02-14T03:59:15.505Z,19.07
2023-02-14T04:02:27.897Z,19.24
2023-02-14T04:05:21.586Z,19.32
2023-02-14T04:08:03.684Z,19.41
2023-02-14T04:10:53.619Z,19.51
2023-02-14T04:13:38.282Z,19.54
2023-02-14T04:16:27.686Z,19.68
2023-02-14T04:19:25.074Z,19.86
2023-02-14T04:22:13.568Z,19.77
2023-02-14T04:25:02.540Z,19.86
2023-02-14T04:27:51.524Z,20.02
2023-02-14T04:30:40.653Z,20.20
2023-02-14T04:33:22.939Z,20.43
2023-02-14T04:36:11.539Z,20.80
2023-02-14T04:38:53.856Z,20.92
2023-02-14T04:41:42.592Z,21.76
2023-02-14T04:44:24.947Z,21.99
2023-02-14T04:47:15.052Z,21.74
2023-02-14T04:49:56.896Z,21.79
2023-02-14T04:52:45.539Z,21.59
2023-02-14T04:55:27.834Z,22.00
2023-02-14T04:58:16.465Z,22.38
2023-02-14T05:01:05.465Z,22.43
2023-02-14T05:04:01.529Z,22.38
2023-02-14T05:06:50.524Z,22.67
2023-02-14T05:09:33.437Z,22.34
2023-02-14T05:12:24.510Z,23.06
2023-02-14T05:15:06.963Z,22.40
2023-02-14T05:17:55.642Z,23.06
2023-02-14T05:20:37.813Z,23.10
2023-02-14T05:23:26.522Z,23.34
2023-02-14T05:26:08.813Z,23.29
2023-02-14T05:28:57.569Z,23.41
2023-02-14T05:31:39.900Z,23.36
2023-02-14T05:34:28.601Z,23.26
2023-02-14T05:37:10.840Z,23.29
2023-02-14T05:39:59.571Z,23.17
2023-02-14T05:42:41.805Z,23.10
2023-02-14T05:45:31.666Z,23.22
2023-02-14T05:48:14.438Z,23.30
2023-02-14T05:51:03.523Z,23.73
2023-02-14T05:53:46.852Z,23.81
2023-02-14T05:56:35.967Z,24.12
2023-02-14T05:59:17.983Z,24.17
2023-02-14T06:02:06.570Z,24.29
2023-02-14T06:05:01.406Z,24.16
2023-02-14T06:07:51.622Z,24.27
2023-02-14T06:10:33.810Z,24.15
2023-02-14T06:13:22.606Z,24.39
2023-02-14T06:16:04.840Z,23.99
2023-02-14T06:18:53.620Z,24.11
2023-02-14T06:21:35.896Z,24.06
2023-02-14T06:24:24.513Z,23.98
2023-02-14T06:27:08.848Z,24.20
2023-02-14T06:29:57.585Z,24.27
2023-02-14T06:32:39.769Z,24.01
2023-02-14T06:35:28.599Z,24.01
2023-02-14T06:38:10.977Z,24.10
2023-02-14T06:41:00.703Z,24.10
2023-02-14T06:43:50.467Z,24.03
2023-02-14T06:46:38.796Z,24.11
2023-02-14T06:49:21.536Z,24.09
2023-02-14T06:52:12.346Z,23.80
2023-02-14T06:54:55.530Z,23.89
2023-02-14T06:57:43.866Z,24.13
2023-02-14T07:00:26.852Z,24.21
2023-02-14T07:03:15.838Z,24.37
2023-02-14T07:06:06.538Z,24.23
2023-02-14T07:08:48.861Z,24.36
2023-02-14T07:11:37.536Z,24.24
2023-02-14T07:14:20.821Z,24.00
2023-02-14T09:43:31.883Z,24.09
2023-02-14T09:46:23.220Z,24.10
2023-02-14T09:49:06.965Z,24.11
2023-02-14T09:51:59.212Z,24.08
2023-02-14T09:54:43.901Z,24.08
2023-02-14T09:57:41.175Z,23.94
2023-02-14T10:00:37.996Z,23.92
2023-02-14T10:03:51.200Z,23.91
2023-02-14T10:07:11.950Z,23.88
2023-02-14T10:10:10.247Z,24.00
2023-02-14T10:13:02.936Z,23.99
2023-02-14T10:15:57.786Z,23.90
2023-02-14T10:18:54.991Z,23.98
2023-02-14T10:21:49.161Z,23.82
2023-02-14T10:24:43.888Z,23.77
2023-02-14T10:27:49.254Z,23.79
2023-02-14T10:30:33.042Z,23.70
2023-02-14T10:33:26.201Z,23.59
2023-02-14T10:36:25.046Z,23.54
2023-02-14T10:39:24.931Z,23.48
2023-02-14T10:42:33.931Z,23.46
2023-02-14T10:45:42.810Z,23.44
2023-02-14T10:48:45.901Z,23.54
2023-02-14T10:51:35.080Z,23.42
2023-02-14T10:55:00.947Z,23.42
2023-02-14T10:57:47.092Z,23.33
2023-02-14T11:00:41.215Z,23.26
2023-02-14T11:03:30.473Z,23.14
2023-02-14T11:06:13.918Z,23.10
2023-02-14T11:09:02.121Z,23.03
2023-02-14T11:11:46.918Z,22.98
2023-02-14T11:14:39.184Z,22.94
2023-02-14T11:17:38.956Z,22.88
2023-02-14T11:20:24.002Z,22.75
2023-02-14T11:23:12.887Z,22.72
2023-02-14T11:26:03.803Z,22.74
2023-02-14T11:29:04.943Z,22.69
2023-02-14T11:31:47.253Z,22.66
2023-02-14T11:34:47.980Z,22.56
2023-02-14T11:37:44.464Z,22.50
2023-02-14T11:40:51.897Z,22.38
2023-02-14T11:43:50.289Z,22.28
2023-02-14T11:46:34.025Z,22.20
2023-02-14T11:49:43.159Z,22.12
2023-02-14T11:52:26.897Z,22.00
2023-02-14T11:55:15.183Z,21.90
2023-02-14T11:57:57.964Z,21.81
2023-02-14T12:00:46.145Z,21.74
2023-02-14T12:03:29.239Z,21.70
2023-02-14T12:06:18.099Z,21.64
2023-02-14T12:09:17.885Z,21.58
2023-02-14T12:12:06.071Z,21.50
2023-02-14T12:14:54.888Z,21.38
2023-02-14T12:17:41.180Z,21.31
2023-02-14T12:20:42.982Z,21.20
2023-02-14T12:23:43.547Z,21.06
2023-02-14T12:26:58.885Z,21.05
2023-02-14T12:29:48.712Z,20.97
2023-02-14T12:32:43.903Z,20.87
2023-02-14T12:35:59.156Z,20.78
2023-02-14T12:39:25.854Z,20.69
2023-02-14T12:42:39.264Z,20.58
2023-02-14T12:45:57.079Z,20.48
2023-02-14T12:49:10.831Z,20.39
2023-02-14T12:52:15.888Z,20.33
2023-02-14T12:55:16.130Z,20.28
2023-02-14T12:58:10.885Z,20.24
2023-02-14T13:01:12.121Z,20.20
2023-02-14T13:04:22.165Z,20.13
2023-02-14T13:07:16.264Z,19.97
2023-02-14T13:10:19.896Z,19.93
2023-02-14T13:13:29.862Z,19.73
2023-02-14T13:16:42.987Z,19.66
2023-02-14T13:19:55.213Z,19.54
2023-02-14T13:22:44.945Z,19.46
2023-02-14T13:25:38.274Z,19.46
2023-02-14T13:28:28.312Z,19.29
2023-02-14T13:31:11.285Z,19.14
2023-02-14T13:34:04.959Z,19.02
2023-02-14T13:36:48.432Z,18.99
2023-02-14T13:39:45.870Z,18.90
2023-02-14T13:42:56.210Z,18.83
2023-02-14T13:45:44.917Z,18.71
2023-02-14T13:48:38.900Z,18.63
2023-02-14T13:51:22.280Z,18.56
2023-02-14T13:54:28.223Z,18.41
2023-02-14T13:57:31.887Z,18.40
2023-02-14T14:00:26.809Z,18.32
2023-02-14T14:03:08.935Z,18.27
2023-02-14T14:06:19.343Z,18.29
2023-02-14T14:09:05.219Z,18.27
2023-02-14T14:12:00.550Z,18.32
2023-02-14T14:14:44.835Z,18.58
2023-02-14T14:17:34.132Z,18.50
2023-02-14T14:20:28.925Z,18.27
2023-02-14T14:23:53.347Z,18.30
2023-02-14T14:26:43.919Z,18.08
2023-02-14T14:29:43.283Z,18.05
2023-02-14T14:32:38.954Z,17.98
2023-02-14T14:35:31.274Z,17.82
2023-02-14T14:38:13.809Z,17.72
2023-02-14T14:40:57.190Z,17.71
2023-02-14T14:43:52.893Z,17.67
2023-02-14T14:46:42.231Z,17.95
2023-02-14T14:49:24.857Z,17.76
2023-02-14T14:52:17.653Z,18.09
2023-02-14T14:55:00.903Z,17.85
2023-02-14T14:57:58.185Z,17.65
2023-02-14T15:00:42.873Z,17.87
2023-02-14T15:03:34.907Z,17.64
2023-02-14T15:06:23.241Z,17.81
2023-02-14T15:09:39.884Z,17.72
2023-02-14T15:12:46.759Z,17.53
2023-02-14T15:15:35.817Z,17.61
2023-02-14T15:18:22.299Z,17.70
2023-02-14T15:21:13.928Z,17.71
2023-02-14T15:23:56.348Z,17.68
2023-02-14T15:26:44.917Z,17.45
2023-02-14T15:29:33.536Z,17.53
2023-02-14T15:32:22.888Z,17.82
2023-02-14T15:35:06.340Z,17.53
2023-02-14T15:37:55.928Z,17.36
2023-02-14T15:40:41.416Z,17.38
2023-02-14T15:43:40.911Z,17.38
2023-02-14T15:46:33.267Z,17.29
2023-02-14T15:49:28.954Z,17.12
2023-02-14T15:52:13.290Z,17.24
2023-02-14T15:55:01.878Z,17.24
2023-02-14T15:57:45.417Z,17.22
2023-02-14T16:00:34.968Z,17.60
2023-02-14T16:03:27.233Z,17.91
2023-02-14T16:06:37.904Z,17.39
2023-02-14T16:09:38.769Z,17.06
2023-02-14T16:12:39.874Z,16.96
2023-02-14T16:15:25.235Z,16.82
2023-02-14T16:18:41.249Z,16.80
2023-02-14T16:21:34.159Z,16.62
2023-02-14T16:24:22.871Z,16.56
2023-02-14T16:27:07.968Z,16.54
2023-02-14T16:29:56.952Z,16.56
2023-02-14T16:32:39.441Z,16.52
2023-02-14T16:35:29.847Z,16.56
2023-02-14T16:38:18.876Z,16.53
2023-02-14T16:41:08.860Z,16.45
2023-02-14T16:43:58.291Z,16.47
2023-02-14T16:46:43.186Z,16.48
2023-02-14T16:49:33.222Z,16.52
2023-02-14T16:52:24.084Z,16.45
2023-02-14T16:55:13.110Z,16.53
2023-02-14T16:57:57.917Z,16.51
2023-02-14T17:00:47.148Z,16.51
2023-02-14T17:03:29.877Z,16.63
2023-02-14T17:06:16.866Z,16.40
2023-02-14T17:09:07.904Z,16.26
2023-02-14T17:11:53.913Z,16.15
2023-02-14T17:14:47.914Z,16.05
2023-02-14T17:17:38.196Z,15.97
2023-02-14T17:20:21.868Z,15.90
2023-02-14T17:23:11.402Z,15.87
2023-02-14T17:25:52.922Z,15.81
2023-02-14T17:28:42.328Z,15.73
2023-02-14T17:31:24.876Z,15.62
2023-02-14T17:34:07.450Z,15.64
2023-02-14T17:36:55.988Z,15.82
2023-02-14T17:39:45.432Z,15.67
2023-02-14T17:42:26.885Z,15.63
2023-02-14T17:45:12.752Z,15.58
2023-02-14T17:48:01.866Z,15.50
2023-02-14T17:50:44.553Z,15.45
2023-02-14T17:53:35.076Z,15.41
2023-02-14T17:56:27.450Z,15.83
2023-02-14T17:59:09.873Z,15.76
2023-02-14T18:01:59.798Z,15.63
2023-02-14T18:04:44.855Z,15.50
2023-02-14T18:07:27.539Z,15.33
2023-02-14T18:10:17.138Z,15.32
2023-02-14T18:12:59.704Z,15.49
2023-02-14T18:15:48.961Z,15.63
2023-02-14T18:18:38.592Z,15.86
2023-02-14T18:21:25.232Z,15.78
2023-02-14T18:24:17.980Z,15.90
2023-02-14T18:27:00.881Z,15.95
2023-02-14T18:29:50.521Z,16.04
2023-02-14T18:32:33.934Z,15.93
2023-02-14T18:35:23.324Z,16.03
2023-02-14T18:38:06.141Z,15.99
2023-02-14T18:40:55.424Z,16.05
2023-02-14T18:43:39.027Z,16.28
2023-02-14T18:46:36.714Z,16.43
2023-02-14T18:49:21.104Z,16.34
2023-02-14T18:52:05.932Z,16.42
2023-02-14T18:54:54.911Z,16.38
2023-02-14T18:57:45.270Z,16.69
2023-02-14T19:00:29.838Z,16.80
2023-02-14T19:03:12.133Z,16.77
2023-02-14T19:06:00.946Z,16.87
2023-02-14T19:08:51.186Z,16.88
2023-02-14T19:11:36.900Z,16.38
2023-02-14T19:14:26.314Z,16.23
2023-02-14T19:17:08.896Z,16.12
2023-02-14T19:19:54.235Z,16.52
2023-02-14T19:22:42.832Z,16.44
2023-02-14T19:25:31.770Z,16.33
2023-02-14T19:28:20.834Z,16.31
2023-02-14T19:31:10.257Z,15.99
2023-02-14T19:33:53.837Z,16.06
2023-02-14T19:36:44.168Z,15.88
2023-02-14T19:39:27.853Z,15.76
2023-02-14T19:42:22.693Z,15.68
2023-02-14T19:45:11.830Z,15.59
2023-02-14T19:48:00.846Z,15.53
2023-02-14T19:50:50.085Z,15.67
2023-02-14T19:53:31.840Z,15.73
2023-02-14T19:56:14.594Z,15.57
2023-02-14T19:59:05.854Z,15.47
2023-02-14T20:01:53.297Z,15.36
2023-02-14T20:04:43.871Z,15.29
2023-02-14T20:07:33.834Z,15.23
2023-02-14T20:10:16.265Z,15.18
2023-02-14T20:13:04.866Z,15.16
2023-02-14T20:15:47.138Z,15.12
2023-02-14T20:18:35.861Z,15.11
2023-02-14T20:21:29.274Z,15.08
2023-02-14T20:24:19.434Z,15.07
2023-02-14T20:27:03.400Z,15.03
2023-02-14T20:29:52.895Z,15.00
2023-02-14T20:32:36.262Z,14.98
2023-02-14T20:35:24.797Z,14.98
2023-02-14T20:38:09.623Z,15.08
2023-02-14T20:40:59.198Z,15.06
2023-02-14T20:43:48.547Z,15.02
2023-02-14T20:46:30.959Z,14.99
2023-02-14T20:49:21.258Z,14.93
2023-02-14T20:52:03.766Z,14.98
2023-02-14T20:54:52.431Z,15.00
2023-02-14T20:57:33.824Z,15.02
2023-02-14T21:00:26.652Z,15.08
2023-02-14T21:03:08.889Z,15.20
2023-02-14T21:05:58.052Z,15.17
2023-02-14T21:08:40.798Z,15.13
2023-02-14T21:11:31.114Z,15.16
2023-02-14T21:14:13.885Z,15.13
2023-02-14T21:17:02.279Z,15.10
2023-02-14T21:19:43.821Z,15.07
2023-02-14T21:22:26.048Z,15.02
2023-02-14T21:25:14.866Z,14.99
2023-02-14T21:28:03.156Z,14.96
2023-02-14T21:30:45.913Z,14.97
2023-02-14T21:33:34.483Z,14.90
2023-02-14T21:36:20.870Z,14.82
2023-02-14T21:39:10.240Z,14.77
2023-02-14T21:41:52.781Z,14.73
2023-02-14T21:45:00.655Z,14.67
2023-02-14T21:47:47.846Z,14.59
2023-02-14T21:50:36.074Z,14.57
2023-02-14T21:53:18.771Z,14.54
2023-02-14T21:56:18.131Z,14.52
2023-02-14T21:59:03.146Z,14.45
2023-02-14T22:01:52.174Z,14.36
2023-02-14T22:04:33.858Z,14.36
2023-02-14T22:07:22.140Z,14.35
2023-02-14T22:10:03.824Z,14.43
2023-02-14T22:12:53.610Z,14.41
2023-02-14T22:15:35.871Z,14.27
2023-02-14T22:18:25.015Z,14.26
2023-02-14T22:21:11.798Z,14.25
2023-02-14T22:24:01.191Z,14.26
2023-02-14T22:26:48.786Z,14.26
2023-02-14T22:29:37.829Z,14.38
2023-02-14T22:32:20.579Z,14.31
2023-02-14T22:35:09.861Z,14.31
2023-02-14T22:37:58.756Z,14.31
2023-02-14T22:40:48.146Z,14.29
2023-02-14T22:43:36.809Z,14.32
2023-02-14T22:46:22.262Z,14.37
2023-02-14T22:49:10.766Z,14.35
2023-02-14T22:51:53.026Z,14.38
2023-02-14T22:54:41.807Z,14.46
2023-02-14T22:57:24.117Z,14.41
2023-02-14T23:00:18.787Z,14.43
2023-02-14T23:03:01.161Z,14.36
2023-02-14T23:05:49.791Z,14.31
2023-02-14T23:08:32.132Z,14.24
2023-02-14T23:11:26.736Z,14.24
2023-02-14T23:14:27.494Z,14.22
2023-02-14T23:17:29.818Z,14.23
2023-02-14T23:20:30.822Z,14.24
2023-02-14T23:23:19.796Z,14.27
2023-02-14T23:26:02.572Z,14.21
2023-02-14T23:28:51.949Z,14.17
2023-02-14T23:31:40.127Z,14.16
2023-02-14T23:34:22.811Z,14.25
2023-02-14T23:37:05.756Z,14.19
2023-02-14T23:39:56.097Z,14.18
2023-02-14T23:42:44.841Z,14.16
2023-02-14T23:45:42.853Z,14.04
2023-02-14T23:48:25.029Z,14.02
2023-02-14T23:51:14.850Z,14.04
2023-02-14T23:53:57.119Z,14.03
2023-02-14T23:56:45.756Z,13.94
2023-02-14T23:59:28.147Z,13.92
